createdAt,value
2017-07-31T00:00:49.382Z,0
2017-07-31T00:02:03.988Z,0
2017-07-31T00:03:04.031Z,0
2017-07-31T00:03:49.149Z,0
2017-07-31T00:04:49.162Z,0
2017-07-31T00:05:49.521Z,0
2017-07-31T00:06:49.532Z,0
2017-07-31T00:07:49.549Z,0
2017-07-31T00:09:03.872Z,0
2017-07-31T00:09:49.607Z,0
2017-07-31T00:10:49.344Z,0
2017-07-31T00:11:49.670Z,0
2017-07-31T00:12:49.700Z,0
2017-07-31T00:13:49.703Z,0
2017-07-31T00:14:49.762Z,0
2017-07-31T00:16:04.356Z,0
2017-07-31T00:16:49.792Z,0
2017-07-31T00:18:04.432Z,0
2017-07-31T00:18:49.872Z,0
2017-07-31T00:19:49.902Z,0
2017-07-31T00:20:49.881Z,0
2017-07-31T00:22:49.958Z,0
2017-07-31T00:23:50.004Z,0
2017-07-31T00:24:49.712Z,0
2017-07-31T00:25:50.034Z,0
2017-07-31T00:26:50.055Z,0
2017-07-31T00:27:50.084Z,0
2017-07-31T00:28:49.845Z,0
2017-07-31T00:29:50.160Z,0
2017-07-31T00:30:50.166Z,0
2017-07-31T00:31:50.205Z,0
2017-07-31T00:32:50.228Z,0
2017-07-31T00:33:49.954Z,0
2017-07-31T00:36:04.918Z,0
2017-07-31T00:36:50.340Z,0
2017-07-31T00:37:50.376Z,0
2017-07-31T00:38:50.373Z,0
2017-07-31T00:41:05.049Z,0
2017-07-31T00:43:05.091Z,0
2017-07-31T00:43:50.527Z,0
2017-07-31T00:44:50.560Z,0
2017-07-31T00:46:05.179Z,0
2017-07-31T00:46:50.612Z,0
2017-07-31T00:49:50.690Z,0
2017-07-31T00:50:50.391Z,0
2017-07-31T00:51:50.727Z,0
2017-07-31T00:52:50.458Z,0
2017-07-31T00:53:50.472Z,0
2017-07-31T00:54:50.804Z,0
2017-07-31T00:55:50.519Z,0
2017-07-31T00:57:05.484Z,0
2017-07-31T00:58:50.902Z,0
2017-07-31T00:59:50.947Z,0
2017-07-31T01:00:50.977Z,0
2017-07-31T01:01:51.007Z,0
2017-07-31T01:02:51.007Z,0
2017-07-31T01:03:50.759Z,0
2017-07-31T01:04:50.778Z,0
2017-07-31T01:05:51.098Z,0
2017-07-31T01:07:50.829Z,0
2017-07-31T01:09:05.791Z,0
2017-07-31T01:10:51.245Z,0
2017-07-31T01:11:50.962Z,0
2017-07-31T01:13:06.188Z,0
2017-07-31T01:13:51.316Z,0
2017-07-31T01:14:51.354Z,0
2017-07-31T01:15:51.375Z,0
2017-07-31T01:16:51.379Z,0
2017-07-31T01:17:51.414Z,0
2017-07-31T01:18:51.453Z,0
2017-07-31T01:19:51.464Z,0
2017-07-31T01:21:06.100Z,0
2017-07-31T01:22:51.563Z,0
2017-07-31T01:23:51.593Z,0
2017-07-31T01:24:51.589Z,0
2017-07-31T01:25:51.634Z,0
2017-07-31T01:27:06.245Z,0
2017-07-31T01:27:51.684Z,0
2017-07-31T01:29:06.323Z,0
2017-07-31T01:29:51.723Z,0
2017-07-31T01:30:51.765Z,0
2017-07-31T01:31:51.794Z,0
2017-07-31T01:32:51.806Z,0
2017-07-31T01:34:06.440Z,0
2017-07-31T01:34:51.879Z,0
2017-07-31T01:35:51.897Z,0
2017-07-31T01:37:06.520Z,0
2017-07-31T01:37:51.948Z,0
2017-07-31T01:38:51.947Z,0
2017-07-31T01:39:52.005Z,0
2017-07-31T01:41:06.618Z,0
2017-07-31T01:41:51.746Z,0
2017-07-31T01:42:52.083Z,0
2017-07-31T01:44:06.711Z,0
2017-07-31T01:44:52.137Z,0
2017-07-31T01:45:52.155Z,0
2017-07-31T01:46:52.161Z,0
2017-07-31T01:47:52.220Z,0
2017-07-31T01:48:52.236Z,0
2017-07-31T01:50:52.282Z,0
2017-07-31T01:51:52.331Z,0
2017-07-31T01:52:52.341Z,0
2017-07-31T01:53:52.053Z,0
2017-07-31T01:54:52.086Z,0
2017-07-31T01:56:07.012Z,0
2017-07-31T01:56:52.452Z,0
2017-07-31T01:57:52.157Z,0
2017-07-31T01:58:52.503Z,0
2017-07-31T01:59:52.203Z,0
2017-07-31T02:00:52.559Z,0
2017-07-31T02:01:52.570Z,0
2017-07-31T02:02:52.606Z,0
2017-07-31T02:03:52.323Z,0
2017-07-31T02:04:52.658Z,0
2017-07-31T02:05:52.370Z,0
2017-07-31T02:06:52.706Z,0
2017-07-31T02:07:52.737Z,0
2017-07-31T02:09:07.363Z,0
2017-07-31T02:09:52.794Z,0
2017-07-31T02:10:52.797Z,0
2017-07-31T02:11:52.534Z,0
2017-07-31T02:12:52.858Z,0
2017-07-31T02:13:52.878Z,0
2017-07-31T02:14:52.932Z,0
2017-07-31T02:16:07.553Z,0
2017-07-31T02:16:52.961Z,0
2017-07-31T02:17:53.013Z,0
2017-07-31T02:18:53.020Z,0
2017-07-31T02:19:53.041Z,0
2017-07-31T02:20:53.076Z,0
2017-07-31T02:21:53.111Z,0
2017-07-31T02:22:53.131Z,0
2017-07-31T02:23:53.176Z,0
2017-07-31T02:24:53.166Z,0
2017-07-31T02:25:53.210Z,0
2017-07-31T02:26:53.225Z,0
2017-07-31T02:27:53.262Z,0
2017-07-31T02:28:53.289Z,0
2017-07-31T02:30:53.316Z,0
2017-07-31T02:32:07.966Z,0
2017-07-31T02:32:53.388Z,0
2017-07-31T02:33:53.410Z,0
2017-07-31T02:34:53.434Z,0
2017-07-31T02:35:53.454Z,0
2017-07-31T02:37:08.097Z,0
2017-07-31T02:37:53.512Z,0
2017-07-31T02:38:53.541Z,0
2017-07-31T02:39:53.579Z,0
2017-07-31T02:40:53.268Z,0
2017-07-31T02:42:53.957Z,0
2017-07-31T02:43:53.677Z,0
2017-07-31T02:44:53.711Z,0
2017-07-31T02:45:53.736Z,0
2017-07-31T02:48:08.366Z,0
2017-07-31T02:49:08.418Z,0
2017-07-31T02:49:53.833Z,0
2017-07-31T02:50:53.862Z,0
2017-07-31T02:51:53.577Z,0
2017-07-31T02:53:08.510Z,0
2017-07-31T02:53:53.638Z,0
2017-07-31T02:54:53.634Z,0
2017-07-31T02:55:53.987Z,0
2017-07-31T02:56:54.001Z,0
2017-07-31T02:57:54.051Z,0
2017-07-31T02:58:54.059Z,0
2017-07-31T02:59:54.090Z,0
2017-07-31T03:00:53.797Z,0
2017-07-31T03:02:08.752Z,4
2017-07-31T03:02:53.875Z,4
2017-07-31T03:04:08.477Z,4
2017-07-31T03:04:53.928Z,0
2017-07-31T03:05:54.234Z,4
2017-07-31T03:06:54.278Z,4
2017-07-31T03:08:08.885Z,4
2017-07-31T03:08:54.333Z,4
2017-07-31T03:09:54.334Z,4
2017-07-31T03:10:54.390Z,4
2017-07-31T03:12:09.010Z,8
2017-07-31T03:12:54.440Z,8
2017-07-31T03:13:54.461Z,8
2017-07-31T03:14:54.487Z,8
2017-07-31T03:15:54.510Z,8
2017-07-31T03:16:54.532Z,8
2017-07-31T03:17:54.579Z,12
2017-07-31T03:19:09.173Z,12
2017-07-31T03:20:08.920Z,12
2017-07-31T03:20:54.646Z,16
2017-07-31T03:22:54.700Z,16
2017-07-31T03:23:54.723Z,16
2017-07-31T03:24:54.765Z,20
2017-07-31T03:25:54.763Z,20
2017-07-31T03:26:54.809Z,20
2017-07-31T03:27:54.824Z,20
2017-07-31T03:28:54.845Z,24
2017-07-31T03:29:54.873Z,28
2017-07-31T03:30:54.585Z,28
2017-07-31T03:31:54.923Z,28
2017-07-31T03:32:54.651Z,32
2017-07-31T03:33:54.969Z,32
2017-07-31T03:34:55.019Z,40
2017-07-31T03:35:55.016Z,40
2017-07-31T03:36:54.772Z,40
2017-07-31T03:38:09.673Z,44
2017-07-31T03:40:55.165Z,52
2017-07-31T03:41:55.194Z,56
2017-07-31T03:42:55.221Z,64
2017-07-31T03:43:55.244Z,64
2017-07-31T03:45:09.864Z,72
2017-07-31T03:45:55.301Z,80
2017-07-31T03:46:55.297Z,88
2017-07-31T03:47:55.346Z,92
2017-07-31T03:49:55.391Z,108
2017-07-31T03:51:10.033Z,124
2017-07-31T03:51:55.422Z,128
2017-07-31T03:53:55.487Z,140
2017-07-31T03:54:55.506Z,140
2017-07-31T03:55:55.539Z,144
2017-07-31T03:57:10.189Z,148
2017-07-31T03:57:55.617Z,156
2017-07-31T03:58:55.300Z,164
2017-07-31T04:00:10.258Z,184
2017-07-31T04:00:55.666Z,192
2017-07-31T04:01:55.692Z,196
2017-07-31T04:02:55.429Z,208
2017-07-31T04:03:55.119Z,216
2017-07-31T04:05:10.372Z,224
2017-07-31T04:05:55.808Z,232
2017-07-31T04:07:10.433Z,260
2017-07-31T04:07:55.872Z,268
2017-07-31T04:08:55.875Z,288
2017-07-31T04:09:55.599Z,300
2017-07-31T04:11:55.652Z,304
2017-07-31T04:12:55.676Z,308
2017-07-31T04:13:56.034Z,324
2017-07-31T04:14:55.727Z,344
2017-07-31T04:15:56.064Z,360
2017-07-31T04:16:56.090Z,372
2017-07-31T04:18:10.717Z,380
2017-07-31T04:18:55.859Z,388
2017-07-31T04:20:56.177Z,456
2017-07-31T04:21:56.219Z,500
2017-07-31T04:23:10.852Z,540
2017-07-31T04:23:56.260Z,564
2017-07-31T04:25:56.309Z,596
2017-07-31T04:27:10.951Z,604
2017-07-31T04:28:56.416Z,652
2017-07-31T04:29:56.100Z,676
2017-07-31T04:30:56.449Z,684
2017-07-31T04:31:56.166Z,680
2017-07-31T04:32:56.516Z,684
2017-07-31T04:33:56.514Z,692
2017-07-31T04:34:56.565Z,696
2017-07-31T04:35:56.577Z,704
2017-07-31T04:36:56.626Z,724
2017-07-31T04:37:56.628Z,756
2017-07-31T04:39:11.253Z,800
2017-07-31T04:39:56.696Z,824
2017-07-31T04:40:56.712Z,876
2017-07-31T04:41:56.742Z,912
2017-07-31T04:42:56.753Z,940
2017-07-31T04:43:56.789Z,972
2017-07-31T04:45:11.394Z,1020
2017-07-31T04:45:56.839Z,1044
2017-07-31T04:46:56.855Z,1072
2017-07-31T04:48:56.930Z,1164
2017-07-31T04:49:56.953Z,1212
2017-07-31T04:50:56.667Z,1268
2017-07-31T04:51:56.990Z,1340
2017-07-31T04:52:57.035Z,1428
2017-07-31T04:54:26.252Z,1636
2017-07-31T04:54:57.092Z,1720
2017-07-31T04:55:57.089Z,1880
2017-07-31T04:56:57.126Z,1996
2017-07-31T04:57:57.145Z,2100
2017-07-31T04:58:57.196Z,2276
2017-07-31T04:59:57.183Z,2488
2017-07-31T05:01:11.842Z,2724
2017-07-31T05:01:57.236Z,2792
2017-07-31T05:02:57.265Z,2812
2017-07-31T05:03:57.309Z,2808
2017-07-31T05:04:57.347Z,2808
2017-07-31T05:05:57.374Z,2840
2017-07-31T05:06:57.386Z,2892
2017-07-31T05:07:57.393Z,2924
2017-07-31T05:08:57.431Z,2936
2017-07-31T05:09:57.473Z,2876
2017-07-31T05:12:57.540Z,2604
2017-07-31T05:13:57.574Z,2572
2017-07-31T05:15:12.191Z,2552
2017-07-31T05:16:57.665Z,2600
2017-07-31T05:17:57.669Z,2632
2017-07-31T05:18:57.749Z,2660
2017-07-31T05:19:57.417Z,2708
2017-07-31T05:20:57.752Z,2724
2017-07-31T05:21:57.790Z,2740
2017-07-31T05:22:57.818Z,2816
2017-07-31T05:23:57.818Z,2972
2017-07-31T05:24:57.860Z,3168
2017-07-31T05:26:12.471Z,3412
2017-07-31T05:26:57.604Z,3516
2017-07-31T05:29:57.687Z,3712
2017-07-31T05:30:58.006Z,3704
2017-07-31T05:32:12.648Z,3644
2017-07-31T05:34:12.701Z,3976
2017-07-31T05:34:58.113Z,4252
2017-07-31T05:35:57.847Z,4640
2017-07-31T05:36:58.182Z,4972
2017-07-31T05:37:57.863Z,5380
2017-07-31T05:38:58.247Z,6012
2017-07-31T05:40:12.835Z,6880
2017-07-31T05:40:58.273Z,7308
2017-07-31T05:42:12.901Z,7636
2017-07-31T05:42:58.023Z,7776
2017-07-31T05:43:58.659Z,8252
2017-07-31T05:45:12.958Z,8576
2017-07-31T05:46:13.004Z,8716
2017-07-31T05:46:58.428Z,8940
2017-07-31T05:47:58.472Z,9656
2017-07-31T05:48:58.177Z,11980
2017-07-31T05:50:12.801Z,12264
2017-07-31T05:50:58.202Z,13872
2017-07-31T05:52:12.872Z,18272
2017-07-31T05:52:58.575Z,19328
2017-07-31T05:53:58.623Z,19328
2017-07-31T05:54:58.648Z,15760
2017-07-31T05:55:58.686Z,12804
2017-07-31T05:58:13.308Z,13932
2017-07-31T05:58:58.763Z,14060
2017-07-31T05:59:58.488Z,13868
2017-07-31T06:00:58.184Z,14564
2017-07-31T06:02:58.860Z,13856
2017-07-31T06:03:58.904Z,17024
2017-07-31T06:05:13.511Z,27680
2017-07-31T06:05:58.952Z,33376
2017-07-31T06:06:58.953Z,25056
2017-07-31T06:07:58.387Z,30048
2017-07-31T06:08:58.714Z,41088
2017-07-31T06:09:58.436Z,29760
2017-07-31T06:10:58.455Z,17280
2017-07-31T06:11:59.109Z,20480
2017-07-31T06:12:58.837Z,19264
2017-07-31T06:14:13.755Z,35680
2017-07-31T06:14:59.209Z,44800
2017-07-31T06:15:59.221Z,54784
2017-07-31T06:17:13.868Z,52192
2017-07-31T06:18:59.327Z,76704
2017-07-31T06:19:58.715Z,77824
2017-07-31T06:21:13.966Z,69056
2017-07-31T06:21:59.391Z,72672
2017-07-31T06:22:59.119Z,72256
2017-07-31T06:23:59.459Z,64160
2017-07-31T06:25:14.155Z,61344
2017-07-31T06:25:59.232Z,65088
2017-07-31T06:26:59.557Z,83264
2017-07-31T06:27:58.999Z,67744
2017-07-31T06:29:59.653Z,50656
2017-07-31T06:30:59.686Z,60768
2017-07-31T06:31:59.732Z,62720
2017-07-31T06:32:59.767Z,69248
2017-07-31T06:33:59.496Z,74592
2017-07-31T06:34:59.830Z,78464
2017-07-31T06:35:59.845Z,69088
2017-07-31T06:36:59.906Z,81152
2017-07-31T06:37:59.915Z,85152
2017-07-31T06:38:59.685Z,81984
2017-07-31T06:40:00.003Z,76896
2017-07-31T06:41:00.024Z,84544
2017-07-31T06:42:00.055Z,80352
2017-07-31T06:43:00.086Z,71616
2017-07-31T06:44:00.123Z,66816
2017-07-31T06:45:00.174Z,80576
2017-07-31T06:45:59.891Z,78432
2017-07-31T06:47:14.846Z,77088
2017-07-31T06:48:00.272Z,78272
2017-07-31T06:49:00.319Z,78048
2017-07-31T06:50:00.337Z,73280
2017-07-31T06:51:00.392Z,74464
2017-07-31T06:52:00.202Z,77120
2017-07-31T06:53:00.452Z,77216
2017-07-31T06:54:00.476Z,76000
2017-07-31T06:55:00.526Z,72992
2017-07-31T06:57:59.708Z,78272
2017-07-31T06:59:00.679Z,79072
2017-07-31T07:00:00.697Z,76800
2017-07-31T07:01:15.354Z,78432
2017-07-31T07:02:00.797Z,76512
2017-07-31T07:03:00.837Z,68704
2017-07-31T07:04:00.538Z,75520
2017-07-31T07:05:15.504Z,77152
2017-07-31T07:06:15.230Z,75488
2017-07-31T07:07:00.674Z,73824
2017-07-31T07:08:00.705Z,69664
2017-07-31T07:09:00.750Z,56928
2017-07-31T07:10:01.411Z,69504
2017-07-31T07:11:00.823Z,72032
2017-07-31T07:12:00.836Z,68288
2017-07-31T07:13:01.202Z,66208
2017-07-31T07:14:00.605Z,67584
2017-07-31T07:15:01.315Z,69280
2017-07-31T07:17:15.951Z,64352
2017-07-31T07:19:01.415Z,67808
2017-07-31T07:20:16.083Z,71424
2017-07-31T07:21:00.884Z,68672
2017-07-31T07:22:01.236Z,65248
2017-07-31T07:23:01.251Z,62464
2017-07-31T07:24:01.295Z,62336
2017-07-31T07:25:01.356Z,64864
2017-07-31T07:26:01.685Z,61824
2017-07-31T07:27:00.806Z,64352
2017-07-31T07:28:01.765Z,63264
2017-07-31T07:29:01.499Z,61024
2017-07-31T07:30:01.833Z,61600
2017-07-31T07:31:01.890Z,60160
2017-07-31T07:32:01.907Z,61440
2017-07-31T07:33:31.167Z,63808
2017-07-31T07:34:01.695Z,63424
2017-07-31T07:35:16.620Z,64192
2017-07-31T07:36:01.759Z,64256
2017-07-31T07:37:01.796Z,61856
2017-07-31T07:38:01.848Z,65792
2017-07-31T07:39:01.869Z,65568
2017-07-31T07:41:02.249Z,56096
2017-07-31T07:42:02.306Z,50368
2017-07-31T07:43:02.357Z,53408
2017-07-31T07:44:02.383Z,57920
2017-07-31T07:45:02.416Z,56128
2017-07-31T07:46:02.461Z,54592
2017-07-31T07:47:17.084Z,66976
2017-07-31T07:48:02.546Z,66784
2017-07-31T07:49:17.160Z,64448
2017-07-31T07:50:02.607Z,64544
2017-07-31T07:51:02.341Z,58624
2017-07-31T07:52:02.678Z,56544
2017-07-31T07:53:02.721Z,54176
2017-07-31T07:54:02.777Z,53408
2017-07-31T07:55:02.782Z,54592
2017-07-31T07:56:02.840Z,56064
2017-07-31T07:57:02.885Z,58464
2017-07-31T07:58:02.608Z,50912
2017-07-31T07:59:02.946Z,56256
2017-07-31T08:00:17.284Z,59520
2017-07-31T08:01:02.723Z,60512
2017-07-31T08:02:02.755Z,58048
2017-07-31T08:03:02.780Z,57760
2017-07-31T08:04:32.332Z,60064
2017-07-31T08:05:03.191Z,57664
2017-07-31T08:06:03.206Z,52768
2017-07-31T08:07:03.263Z,43136
2017-07-31T08:08:02.992Z,42048
2017-07-31T08:09:03.327Z,41888
2017-07-31T08:10:02.766Z,50624
2017-07-31T08:11:03.412Z,56128
2017-07-31T08:12:03.437Z,50912
2017-07-31T08:13:02.861Z,58912
2017-07-31T08:14:02.883Z,60672
2017-07-31T08:15:03.254Z,58272
2017-07-31T08:16:03.599Z,56640
2017-07-31T08:17:03.332Z,54176
2017-07-31T08:18:03.044Z,48768
2017-07-31T08:19:03.095Z,45760
2017-07-31T08:20:03.741Z,49472
2017-07-31T08:21:18.390Z,52448
2017-07-31T08:22:03.515Z,49408
2017-07-31T08:23:03.560Z,43296
2017-07-31T08:24:03.599Z,29344
2017-07-31T08:25:03.928Z,23008
2017-07-31T08:26:03.669Z,22432
2017-07-31T08:28:18.341Z,21344
2017-07-31T08:30:04.109Z,19296
2017-07-31T08:31:18.771Z,20224
2017-07-31T08:32:04.197Z,20256
2017-07-31T08:33:04.237Z,20736
2017-07-31T08:34:03.953Z,21472
2017-07-31T08:35:04.383Z,21632
2017-07-31T08:36:18.637Z,21920
2017-07-31T08:37:04.386Z,21760
2017-07-31T08:38:04.403Z,19584
2017-07-31T08:39:04.461Z,19008
2017-07-31T08:40:04.494Z,20384
2017-07-31T08:41:04.227Z,20256
2017-07-31T08:42:04.570Z,19616
2017-07-31T08:43:04.611Z,18816
2017-07-31T08:44:04.626Z,18496
2017-07-31T08:46:04.721Z,18240
2017-07-31T08:47:04.769Z,18336
2017-07-31T08:48:04.808Z,19840
2017-07-31T08:49:04.820Z,17696
2017-07-31T08:50:04.557Z,15508
2017-07-31T08:51:19.493Z,19328
2017-07-31T08:52:19.535Z,15732
2017-07-31T08:53:04.957Z,18016
2017-07-31T08:54:05.017Z,17632
2017-07-31T08:55:05.067Z,17116
2017-07-31T08:56:05.088Z,17236
2017-07-31T08:57:05.130Z,17536
2017-07-31T08:58:05.135Z,18432
2017-07-31T08:59:05.190Z,17144
2017-07-31T09:00:04.921Z,17952
2017-07-31T09:01:04.959Z,18304
2017-07-31T09:02:05.330Z,18208
2017-07-31T09:03:19.935Z,16272
2017-07-31T09:04:05.382Z,16000
2017-07-31T09:05:04.793Z,16192
2017-07-31T09:06:05.459Z,16652
2017-07-31T09:07:05.171Z,18144
2017-07-31T09:08:20.118Z,18080
2017-07-31T09:09:05.262Z,16900
2017-07-31T09:10:04.977Z,16216
2017-07-31T09:11:20.253Z,16968
2017-07-31T09:12:05.666Z,16972
2017-07-31T09:13:05.402Z,16512
2017-07-31T09:14:05.432Z,16200
2017-07-31T09:16:05.825Z,16464
2017-07-31T09:17:05.567Z,15188
2017-07-31T09:18:05.898Z,17164
2017-07-31T09:19:05.605Z,17664
2017-07-31T09:20:05.965Z,17100
2017-07-31T09:22:05.742Z,16324
2017-07-31T09:23:05.764Z,16120
2017-07-31T09:24:20.726Z,15564
2017-07-31T09:26:06.176Z,16008
2017-07-31T09:27:05.929Z,15740
2017-07-31T09:28:20.549Z,16108
2017-07-31T09:30:06.017Z,15040
2017-07-31T09:31:06.371Z,14856
2017-07-31T09:32:06.073Z,14992
2017-07-31T09:34:21.074Z,14984
2017-07-31T09:35:06.514Z,15376
2017-07-31T09:36:06.561Z,15584
2017-07-31T09:37:06.584Z,15504
2017-07-31T09:38:06.621Z,15072
2017-07-31T09:39:21.242Z,15428
2017-07-31T09:40:06.700Z,15052
2017-07-31T09:42:21.065Z,15344
2017-07-31T09:43:06.486Z,15372
2017-07-31T09:44:06.853Z,15336
2017-07-31T09:45:06.893Z,15392
2017-07-31T09:46:21.514Z,14656
2017-07-31T09:47:21.545Z,14548
2017-07-31T09:48:06.976Z,14564
2017-07-31T09:49:07.004Z,15152
2017-07-31T09:50:07.053Z,14860
2017-07-31T09:51:07.111Z,15012
2017-07-31T09:52:07.127Z,15080
2017-07-31T09:53:07.183Z,15268
2017-07-31T09:54:07.176Z,14780
2017-07-31T09:55:07.237Z,14924
2017-07-31T09:56:21.862Z,14824
2017-07-31T09:57:07.303Z,14728
2017-07-31T09:58:07.026Z,14656
2017-07-31T09:59:21.956Z,14224
2017-07-31T10:00:07.122Z,14348
2017-07-31T10:01:07.455Z,13340
2017-07-31T10:02:22.080Z,13720
2017-07-31T10:03:07.512Z,11832
2017-07-31T10:04:07.553Z,13912
2017-07-31T10:05:07.292Z,14528
2017-07-31T10:06:07.631Z,14416
2017-07-31T10:07:07.347Z,14164
2017-07-31T10:08:07.075Z,13000
2017-07-31T10:09:07.435Z,13768
2017-07-31T10:10:07.454Z,12872
2017-07-31T10:11:22.415Z,13896
2017-07-31T10:12:07.523Z,13652
2017-07-31T10:13:07.851Z,13552
2017-07-31T10:14:07.598Z,13296
2017-07-31T10:15:07.633Z,13452
2017-07-31T10:16:07.670Z,13700
2017-07-31T10:17:08.005Z,13428
2017-07-31T10:18:08.310Z,13464
2017-07-31T10:19:07.770Z,12676
2017-07-31T10:20:08.107Z,12692
2017-07-31T10:21:07.836Z,13272
2017-07-31T10:22:08.206Z,12924
2017-07-31T10:23:07.905Z,13020
2017-07-31T10:24:07.634Z,12932
2017-07-31T10:25:22.903Z,12696
2017-07-31T10:26:08.340Z,12620
2017-07-31T10:27:22.661Z,11708
2017-07-31T10:29:08.442Z,7428
2017-07-31T10:30:08.139Z,12300
2017-07-31T10:31:08.195Z,12384
2017-07-31T10:32:08.241Z,11768
2017-07-31T10:33:08.881Z,11724
2017-07-31T10:34:08.298Z,11836
2017-07-31T10:36:08.353Z,11888
2017-07-31T10:37:23.312Z,12036
2017-07-31T10:38:08.750Z,11776
2017-07-31T10:39:08.782Z,12056
2017-07-31T10:40:08.830Z,12480
2017-07-31T10:41:08.840Z,12152
2017-07-31T10:42:08.611Z,12260
2017-07-31T10:43:23.515Z,12100
2017-07-31T10:44:23.557Z,12304
2017-07-31T10:45:08.720Z,5284
2017-07-31T10:46:23.638Z,12280
2017-07-31T10:48:09.075Z,11864
2017-07-31T10:49:09.134Z,12164
2017-07-31T10:50:08.849Z,7652
2017-07-31T10:51:09.193Z,11840
2017-07-31T10:52:08.949Z,11600
2017-07-31T10:53:09.253Z,12156
2017-07-31T10:54:09.300Z,12384
2017-07-31T10:55:23.942Z,12284
2017-07-31T10:56:09.070Z,12152
2017-07-31T10:57:09.423Z,6960
2017-07-31T10:58:24.040Z,6508
2017-07-31T10:59:24.077Z,12228
2017-07-31T11:00:09.567Z,10272
2017-07-31T11:01:08.909Z,11792
2017-07-31T11:02:23.866Z,11508
2017-07-31T11:03:09.590Z,11580
2017-07-31T11:04:09.646Z,11884
2017-07-31T11:05:24.267Z,12188
2017-07-31T11:06:09.721Z,12228
2017-07-31T11:07:09.728Z,12380
2017-07-31T11:08:09.447Z,12208
2017-07-31T11:09:09.816Z,12252
2017-07-31T11:10:09.847Z,12968
2017-07-31T11:11:09.887Z,6496
2017-07-31T11:12:09.899Z,6068
2017-07-31T11:13:09.944Z,11720
2017-07-31T11:14:24.573Z,5908
2017-07-31T11:15:23.987Z,5952
2017-07-31T11:16:10.072Z,8392
2017-07-31T11:17:10.095Z,11556
2017-07-31T11:18:10.098Z,6532
2017-07-31T11:19:24.753Z,6948
2017-07-31T11:20:09.907Z,6264
2017-07-31T11:21:09.900Z,6200
2017-07-31T11:22:09.917Z,11108
2017-07-31T11:23:24.883Z,10692
2017-07-31T11:24:09.982Z,11908
2017-07-31T11:25:10.032Z,11756
2017-07-31T11:26:10.362Z,10700
2017-07-31T11:27:10.107Z,10156
2017-07-31T11:28:10.440Z,9616
2017-07-31T11:29:10.681Z,9192
2017-07-31T11:30:25.123Z,8856
2017-07-31T11:31:10.524Z,8724
2017-07-31T11:32:10.243Z,8660
2017-07-31T11:33:10.305Z,7984
2017-07-31T11:34:10.000Z,5432
2017-07-31T11:35:10.360Z,8124
2017-07-31T11:36:25.294Z,7956
2017-07-31T11:37:10.737Z,8180
2017-07-31T11:38:10.785Z,8140
2017-07-31T11:39:10.490Z,8444
2017-07-31T11:40:25.432Z,8344
2017-07-31T11:42:10.892Z,7852
2017-07-31T11:43:10.913Z,7692
2017-07-31T11:44:10.657Z,5808
2017-07-31T11:45:10.675Z,7524
2017-07-31T11:46:25.625Z,7524
2017-07-31T11:47:25.647Z,7360
2017-07-31T11:48:11.104Z,6276
2017-07-31T11:49:10.804Z,7424
2017-07-31T11:51:11.173Z,5344
2017-07-31T11:52:10.914Z,5108
2017-07-31T11:53:11.251Z,5404
2017-07-31T11:56:25.957Z,6604
2017-07-31T11:57:25.983Z,7208
2017-07-31T11:59:11.436Z,10464
2017-07-31T12:00:11.172Z,10092
2017-07-31T12:01:11.501Z,9728
2017-07-31T12:02:25.836Z,9728
2017-07-31T12:04:11.591Z,6976
2017-07-31T12:05:11.650Z,6916
2017-07-31T12:06:11.662Z,7156
2017-07-31T12:07:11.397Z,7216
2017-07-31T12:08:11.733Z,7172
2017-07-31T12:09:11.772Z,7300
2017-07-31T12:10:11.802Z,8432
2017-07-31T12:12:11.845Z,7824
2017-07-31T12:13:11.911Z,9676
2017-07-31T12:14:11.912Z,9620
2017-07-31T12:15:11.948Z,9756
2017-07-31T12:16:11.671Z,7248
2017-07-31T12:17:12.045Z,6888
2017-07-31T12:18:26.654Z,6628
2017-07-31T12:19:12.102Z,6628
2017-07-31T12:20:11.491Z,9132
2017-07-31T12:21:12.148Z,7376
2017-07-31T12:22:12.180Z,9100
2017-07-31T12:23:12.214Z,9484
2017-07-31T12:24:12.254Z,8796
2017-07-31T12:25:12.282Z,6480
2017-07-31T12:26:12.006Z,5964
2017-07-31T12:28:12.087Z,8132
2017-07-31T12:29:12.104Z,6744
2017-07-31T12:30:12.159Z,7960
2017-07-31T12:31:27.071Z,8256
2017-07-31T12:32:12.509Z,8196
2017-07-31T12:33:12.547Z,6236
2017-07-31T12:35:27.197Z,7284
2017-07-31T12:36:11.715Z,6012
2017-07-31T12:40:12.774Z,7424
2017-07-31T12:41:12.803Z,6160
2017-07-31T12:42:12.837Z,7648
2017-07-31T12:43:12.887Z,7508
2017-07-31T12:44:12.637Z,7532
2017-07-31T12:45:12.904Z,7256
2017-07-31T12:46:12.960Z,5404
2017-07-31T12:47:12.989Z,7712
2017-07-31T12:48:13.025Z,7792
2017-07-31T12:49:27.651Z,8028
2017-07-31T12:50:12.781Z,8212
2017-07-31T12:51:27.740Z,8064
2017-07-31T12:52:27.429Z,6792
2017-07-31T12:53:12.880Z,8016
2017-07-31T12:54:13.213Z,5696
2017-07-31T12:56:13.282Z,8064
2017-07-31T12:58:13.032Z,7312
2017-07-31T12:59:27.971Z,8396
2017-07-31T13:00:13.403Z,6696
2017-07-31T13:01:13.123Z,8524
2017-07-31T13:02:28.060Z,8644
2017-07-31T13:04:13.520Z,9152
2017-07-31T13:05:13.581Z,6628
2017-07-31T13:06:13.277Z,6532
2017-07-31T13:07:13.336Z,6508
2017-07-31T13:08:13.651Z,6652
2017-07-31T13:09:13.691Z,6880
2017-07-31T13:10:13.426Z,7244
2017-07-31T13:11:13.444Z,9972
2017-07-31T13:12:13.817Z,10004
2017-07-31T13:13:13.819Z,9708
2017-07-31T13:14:13.845Z,7112
2017-07-31T13:15:13.586Z,6716
2017-07-31T13:16:13.923Z,8648
2017-07-31T13:17:13.639Z,8680
2017-07-31T13:19:13.708Z,7832
2017-07-31T13:20:13.739Z,7664
2017-07-31T13:21:28.691Z,7468
2017-07-31T13:22:14.130Z,7404
2017-07-31T13:23:14.138Z,7372
2017-07-31T13:24:13.874Z,7400
2017-07-31T13:25:14.201Z,7440
2017-07-31T13:26:13.624Z,7496
2017-07-31T13:27:14.243Z,7452
2017-07-31T13:28:13.698Z,6980
2017-07-31T13:29:14.344Z,7636
2017-07-31T13:30:14.372Z,7760
2017-07-31T13:31:14.069Z,7572
2017-07-31T13:32:14.400Z,7364
2017-07-31T13:33:14.473Z,7188
2017-07-31T13:34:14.494Z,7080
2017-07-31T13:35:14.213Z,7032
2017-07-31T13:36:14.562Z,7320
2017-07-31T13:37:29.179Z,7756
2017-07-31T13:38:14.330Z,7860
2017-07-31T13:39:14.332Z,7748
2017-07-31T13:40:14.689Z,7572
2017-07-31T13:42:14.436Z,5468
2017-07-31T13:43:14.804Z,7596
2017-07-31T13:44:29.405Z,7504
2017-07-31T13:45:14.857Z,7352
2017-07-31T13:46:14.896Z,7192
2017-07-31T13:47:29.505Z,4776
2017-07-31T13:48:14.937Z,4360
2017-07-31T13:49:14.960Z,4372
2017-07-31T13:50:15.015Z,7316
2017-07-31T13:51:15.039Z,7324
2017-07-31T13:52:14.464Z,7404
2017-07-31T13:53:29.698Z,4724
2017-07-31T13:54:14.841Z,4540
2017-07-31T13:55:14.837Z,4456
2017-07-31T13:56:15.182Z,4564
2017-07-31T13:57:15.221Z,4624
2017-07-31T13:58:15.262Z,6360
2017-07-31T13:59:15.309Z,5124
2017-07-31T14:00:15.318Z,6564
2017-07-31T14:02:15.374Z,5536
2017-07-31T14:04:15.152Z,5828
2017-07-31T14:05:30.072Z,8092
2017-07-31T14:06:15.502Z,8024
2017-07-31T14:07:15.544Z,7184
2017-07-31T14:09:30.206Z,7844
2017-07-31T14:10:15.641Z,7540
2017-07-31T14:11:15.364Z,7324
2017-07-31T14:12:15.694Z,7064
2017-07-31T14:13:15.719Z,6840
2017-07-31T14:14:30.381Z,6652
2017-07-31T14:15:15.801Z,6524
2017-07-31T14:16:15.833Z,6404
2017-07-31T14:17:30.456Z,6236
2017-07-31T14:18:15.903Z,6192
2017-07-31T14:19:15.606Z,6196
2017-07-31T14:20:16.252Z,5848
2017-07-31T14:21:15.973Z,6144
2017-07-31T14:22:16.037Z,6100
2017-07-31T14:23:16.044Z,6164
2017-07-31T14:24:30.376Z,5812
2017-07-31T14:25:30.713Z,4772
2017-07-31T14:26:16.150Z,5460
2017-07-31T14:27:16.168Z,6284
2017-07-31T14:28:16.217Z,6280
2017-07-31T14:29:16.694Z,6380
2017-07-31T14:30:30.903Z,6076
2017-07-31T14:31:16.303Z,6536
2017-07-31T14:32:16.339Z,6520
2017-07-31T14:33:16.375Z,3980
2017-07-31T14:35:16.431Z,6592
2017-07-31T14:36:16.440Z,6444
2017-07-31T14:37:16.488Z,6216
2017-07-31T14:38:16.518Z,5380
2017-07-31T14:39:16.555Z,6148
2017-07-31T14:40:16.590Z,6124
2017-07-31T14:41:16.623Z,6108
2017-07-31T14:42:16.647Z,6068
2017-07-31T14:43:31.271Z,6036